createdAt,value
2017-09-11T00:00:39.504Z,11.10
2017-09-11T00:03:05.768Z,10.27
2017-09-11T00:05:31.974Z,9.73
2017-09-11T00:07:58.212Z,9.90
2017-09-11T00:10:24.474Z,10.20
2017-09-11T00:12:50.665Z,9.93
2017-09-11T00:15:16.877Z,9.70
2017-09-11T00:17:43.146Z,10.47
2017-09-11T00:20:09.368Z,10.30
2017-09-11T00:22:35.594Z,9.77
2017-09-11T00:25:01.876Z,11.07
2017-09-11T00:27:28.098Z,12.03
2017-09-11T00:29:54.336Z,10.93
2017-09-11T00:32:20.616Z,8.43
2017-09-11T00:34:46.839Z,10.53
2017-09-11T00:37:13.069Z,10.90
2017-09-11T00:39:39.349Z,10.47
2017-09-11T00:42:05.552Z,11.33
2017-09-11T00:44:31.788Z,10.90
2017-09-11T00:46:58.053Z,10.13
2017-09-11T00:49:24.265Z,9.90
2017-09-11T00:51:50.483Z,9.60
2017-09-11T00:54:16.758Z,10.67
2017-09-11T00:56:42.981Z,11.40
2017-09-11T00:59:09.211Z,11.57
2017-09-11T01:01:35.509Z,11.10
2017-09-11T01:04:01.749Z,13.30
2017-09-11T01:06:27.976Z,11.20
2017-09-11T01:08:54.249Z,10.07
2017-09-11T01:11:20.480Z,12.73
2017-09-11T01:13:46.695Z,11.10
2017-09-11T01:16:12.992Z,10.70
2017-09-11T01:18:39.223Z,10.90
2017-09-11T01:21:05.471Z,11.20
2017-09-11T01:23:31.762Z,10.50
2017-09-11T01:25:58.002Z,11.07
2017-09-11T01:28:24.287Z,11.10
2017-09-11T01:30:50.562Z,11.37
2017-09-11T01:33:16.788Z,10.67
2017-09-11T01:35:43.006Z,12.43
2017-09-11T01:38:09.296Z,12.30
2017-09-11T01:40:35.506Z,10.20
2017-09-11T01:43:01.729Z,11.27
2017-09-11T01:45:28.002Z,9.87
2017-09-11T01:47:54.232Z,11.83
2017-09-11T01:50:20.450Z,9.67
2017-09-11T01:52:46.730Z,10.80
2017-09-11T01:55:12.941Z,9.60
2017-09-11T01:57:39.175Z,11.00
2017-09-11T02:00:05.466Z,9.80
2017-09-11T02:02:31.700Z,11.20
2017-09-11T02:04:57.918Z,10.50
2017-09-11T02:07:24.205Z,10.00
2017-09-11T02:09:50.435Z,10.53
2017-09-11T02:12:16.676Z,9.63
2017-09-11T02:14:42.949Z,9.90
2017-09-11T02:17:09.169Z,10.93
2017-09-11T02:19:35.419Z,10.93
2017-09-11T02:22:01.689Z,10.97
2017-09-11T02:24:27.910Z,10.10
2017-09-11T02:26:54.139Z,9.40
2017-09-11T02:29:20.420Z,9.30
2017-09-11T02:31:46.648Z,11.37
2017-09-11T02:34:12.900Z,10.10
2017-09-11T02:36:39.202Z,11.60
2017-09-11T02:39:05.435Z,11.10
2017-09-11T02:41:31.725Z,11.17
2017-09-11T02:43:58.048Z,11.50
2017-09-11T02:46:24.296Z,10.67
2017-09-11T02:48:50.539Z,11.17
2017-09-11T02:51:16.805Z,11.20
2017-09-11T02:53:43.018Z,9.90
2017-09-11T02:56:09.244Z,10.97
2017-09-11T02:58:35.573Z,11.60
2017-09-11T03:01:01.793Z,10.07
2017-09-11T03:03:28.011Z,9.70
2017-09-11T03:05:54.286Z,11.33
2017-09-11T03:08:20.514Z,10.80
2017-09-11T03:10:46.755Z,12.40
2017-09-11T03:13:13.029Z,9.73
2017-09-11T03:15:39.257Z,10.90
2017-09-11T03:18:05.493Z,11.23
2017-09-11T03:20:31.770Z,11.73
2017-09-11T03:22:57.980Z,10.87
2017-09-11T03:25:24.201Z,10.90
2017-09-11T03:27:50.489Z,13.20
2017-09-11T03:30:16.719Z,9.60
2017-09-11T03:32:42.933Z,11.13
2017-09-11T03:35:09.241Z,12.33
2017-09-11T03:37:35.485Z,13.23
2017-09-11T03:40:01.767Z,10.63
2017-09-11T03:42:28.068Z,11.47
2017-09-11T03:44:54.286Z,11.80
2017-09-11T03:47:20.514Z,12.50
2017-09-11T03:49:46.813Z,12.43
2017-09-11T03:52:13.029Z,13.03
2017-09-11T03:54:39.245Z,13.00
2017-09-11T03:57:05.524Z,12.27
2017-09-11T03:59:31.748Z,9.60
2017-09-11T04:01:57.975Z,10.60
2017-09-11T04:04:24.253Z,11.70
2017-09-11T04:06:50.457Z,10.00
2017-09-11T04:09:16.698Z,10.77
2017-09-11T04:11:42.993Z,10.30
2017-09-11T04:14:09.218Z,9.97
2017-09-11T04:16:35.463Z,9.67
2017-09-11T04:19:01.744Z,10.07
2017-09-11T04:21:27.971Z,10.00
2017-09-11T04:23:54.221Z,8.67
2017-09-11T04:26:20.514Z,9.60
2017-09-11T04:28:46.765Z,8.43
2017-09-11T04:31:12.994Z,7.90
2017-09-11T04:33:39.966Z,9.63
2017-09-11T04:36:06.226Z,8.10
2017-09-11T04:38:32.474Z,8.83
2017-09-11T04:40:58.761Z,7.57
2017-09-11T04:43:24.998Z,7.47
2017-09-11T04:45:51.245Z,7.03
2017-09-11T04:48:17.531Z,7.90
2017-09-11T04:50:43.767Z,8.17
2017-09-11T04:53:10.005Z,10.70
2017-09-11T04:55:36.277Z,7.80
2017-09-11T04:58:02.497Z,6.57
2017-09-11T05:00:28.733Z,9.40
2017-09-11T05:02:55.025Z,6.80
2017-09-11T05:05:21.246Z,9.77
2017-09-11T05:07:47.474Z,6.87
2017-09-11T05:10:13.755Z,6.17
2017-09-11T05:12:39.983Z,6.80
2017-09-11T05:15:06.211Z,7.60
2017-09-11T05:17:32.477Z,5.60
2017-09-11T05:19:58.709Z,5.97
2017-09-11T05:22:24.947Z,6.90
2017-09-11T05:24:51.238Z,6.10
2017-09-11T05:27:17.481Z,5.73
2017-09-11T05:29:43.719Z,6.93
2017-09-11T05:32:10.031Z,6.63
2017-09-11T05:34:36.277Z,7.10
2017-09-11T05:37:02.507Z,6.10
2017-09-11T05:39:28.789Z,7.00
2017-09-11T05:41:55.038Z,6.83
2017-09-11T05:44:21.260Z,5.27
2017-09-11T05:46:47.530Z,6.47
2017-09-11T05:49:13.964Z,7.13
2017-09-11T05:51:40.196Z,8.40
2017-09-11T05:54:06.469Z,7.40
2017-09-11T05:56:32.690Z,6.20
2017-09-11T05:58:58.914Z,6.17
2017-09-11T06:01:25.247Z,6.07
2017-09-11T06:03:51.482Z,6.40
2017-09-11T06:06:17.695Z,5.07
2017-09-11T06:08:43.988Z,6.20
2017-09-11T06:11:10.211Z,5.40
2017-09-11T06:13:36.443Z,5.30
2017-09-11T06:16:02.681Z,5.07
2017-09-11T06:18:28.898Z,6.87
2017-09-11T06:20:55.126Z,4.97
2017-09-11T06:23:21.423Z,5.83
2017-09-11T06:25:47.665Z,6.50
2017-09-11T06:28:13.901Z,5.03
2017-09-11T06:30:40.180Z,6.00
2017-09-11T06:33:06.402Z,6.07
2017-09-11T06:35:32.627Z,5.30
2017-09-11T06:37:58.909Z,12.10
2017-09-11T06:40:25.137Z,7.43
2017-09-11T06:42:51.373Z,6.60
2017-09-11T06:45:17.641Z,6.77
2017-09-11T06:47:43.851Z,7.93
2017-09-11T06:50:10.085Z,8.87
2017-09-11T06:52:36.353Z,7.47
2017-09-11T06:55:02.587Z,8.60
2017-09-11T06:57:28.801Z,7.47
2017-09-11T06:59:55.091Z,6.67
2017-09-11T07:02:21.317Z,7.50
2017-09-11T07:04:47.559Z,7.77
2017-09-11T07:07:13.842Z,8.33
2017-09-11T07:09:40.075Z,7.13
2017-09-11T07:12:06.309Z,8.50
2017-09-11T07:14:32.609Z,8.73
2017-09-11T07:16:58.875Z,6.03
2017-09-11T07:19:25.097Z,6.60
2017-09-11T07:21:51.388Z,7.40
2017-09-11T07:24:17.598Z,6.63
2017-09-11T07:26:43.813Z,6.90
2017-09-11T07:29:10.081Z,5.57
2017-09-11T07:31:36.321Z,5.80
2017-09-11T07:34:02.592Z,6.60
2017-09-11T07:36:28.871Z,7.73
2017-09-11T07:38:55.094Z,8.00
2017-09-11T07:41:21.320Z,8.20
2017-09-11T07:43:47.594Z,8.40
2017-09-11T07:46:13.819Z,8.27
2017-09-11T07:48:40.043Z,8.97
2017-09-11T07:51:06.317Z,9.07
2017-09-11T07:53:32.547Z,9.97
2017-09-11T07:55:58.785Z,9.50
2017-09-11T07:58:25.073Z,9.25
2017-09-11T08:00:51.315Z,7.65
2017-09-11T08:03:17.553Z,6.93
2017-09-11T08:05:43.863Z,6.65
2017-09-11T08:08:10.113Z,7.35
2017-09-11T08:10:36.356Z,5.95
2017-09-11T08:13:02.666Z,6.35
2017-09-11T08:15:28.900Z,6.70
2017-09-11T08:17:55.145Z,6.70
2017-09-11T08:20:21.461Z,6.12
2017-09-11T08:22:47.686Z,6.05
2017-09-11T08:25:13.920Z,6.75
2017-09-11T08:27:40.200Z,7.30
2017-09-11T08:30:06.438Z,5.62
2017-09-11T08:32:32.654Z,7.25
2017-09-11T08:34:58.926Z,6.10
2017-09-11T08:37:25.172Z,6.90
2017-09-11T08:39:51.389Z,5.07
2017-09-11T08:42:17.663Z,6.40
2017-09-11T08:44:43.890Z,5.35
2017-09-11T08:47:10.131Z,6.15
2017-09-11T08:49:36.421Z,5.85
2017-09-11T08:52:02.645Z,6.05
2017-09-11T08:54:28.870Z,6.28
2017-09-11T08:56:55.138Z,4.70
2017-09-11T08:59:21.383Z,5.20
2017-09-11T09:01:47.626Z,4.68
2017-09-11T09:04:13.916Z,4.43
2017-09-11T09:06:40.149Z,5.32
2017-09-11T09:09:06.368Z,5.80
2017-09-11T09:11:32.651Z,6.45
2017-09-11T09:13:58.865Z,6.55
2017-09-11T09:16:25.078Z,6.03
2017-09-11T09:18:51.357Z,5.53
2017-09-11T09:21:17.590Z,5.28
2017-09-11T09:23:43.820Z,4.90
2017-09-11T09:26:10.080Z,7.12
2017-09-11T09:28:36.318Z,5.60
2017-09-11T09:31:02.554Z,5.22
2017-09-11T09:33:28.835Z,4.62
2017-09-11T09:35:55.057Z,6.28
2017-09-11T09:38:21.294Z,6.32
2017-09-11T09:40:47.559Z,4.80
2017-09-11T09:43:13.765Z,4.68
2017-09-11T09:45:39.994Z,5.75
2017-09-11T09:48:06.297Z,5.28
2017-09-11T09:50:32.522Z,6.10
2017-09-11T09:52:58.754Z,4.95
2017-09-11T09:55:25.027Z,5.20
2017-09-11T09:57:51.248Z,4.93
2017-09-11T10:00:17.481Z,6.12
2017-09-11T10:02:43.775Z,5.30
2017-09-11T10:05:10.059Z,4.72
2017-09-11T10:07:36.267Z,5.45
2017-09-11T10:10:02.556Z,5.55
2017-09-11T10:12:28.775Z,5.57
2017-09-11T10:14:54.997Z,4.85
2017-09-11T10:17:21.304Z,5.53
2017-09-11T10:19:47.554Z,5.37
2017-09-11T10:22:13.790Z,5.05
2017-09-11T10:24:40.094Z,5.93
2017-09-11T10:27:06.317Z,5.95
2017-09-11T10:29:32.537Z,5.00
2017-09-11T10:31:58.829Z,6.18
2017-09-11T10:34:25.048Z,6.95
2017-09-11T10:36:51.274Z,6.10
2017-09-11T10:39:17.552Z,7.95
2017-09-11T10:41:43.789Z,7.00
2017-09-11T10:44:10.018Z,7.62
2017-09-11T10:46:36.340Z,7.30
2017-09-11T10:49:02.554Z,6.87
2017-09-11T10:51:28.778Z,6.25
2017-09-11T10:53:55.063Z,6.55
2017-09-11T10:56:21.309Z,8.30
2017-09-11T10:58:47.516Z,7.20
2017-09-11T11:01:13.791Z,6.37
2017-09-11T11:03:40.007Z,5.75
2017-09-11T11:06:06.224Z,7.37
2017-09-11T11:08:32.534Z,6.32
2017-09-11T11:10:58.763Z,6.72
2017-09-11T11:13:25.039Z,7.30
2017-09-11T11:15:51.314Z,6.53
2017-09-11T11:18:17.535Z,6.97
2017-09-11T11:20:43.886Z,7.80
2017-09-11T11:23:10.152Z,7.60
2017-09-11T11:25:36.384Z,7.55
2017-09-11T11:28:02.600Z,6.70
2017-09-11T11:30:28.900Z,7.93
2017-09-11T11:32:55.129Z,6.40
2017-09-11T11:35:21.449Z,6.57
2017-09-11T11:37:47.758Z,7.60
2017-09-11T11:40:13.979Z,7.35
2017-09-11T11:42:40.771Z,8.98
2017-09-11T11:45:07.131Z,6.97
2017-09-11T11:47:33.345Z,7.18
2017-09-11T11:49:59.561Z,6.53
2017-09-11T11:52:25.825Z,7.55
2017-09-11T11:54:52.038Z,7.35
2017-09-11T11:57:18.265Z,6.07
2017-09-11T11:59:44.531Z,6.07
2017-09-11T12:02:10.763Z,6.18
2017-09-11T12:04:36.989Z,7.68
2017-09-11T12:07:03.286Z,6.65
2017-09-11T12:09:29.504Z,6.80
2017-09-11T12:11:55.740Z,6.07
2017-09-11T12:14:22.183Z,6.40
2017-09-11T12:16:48.394Z,5.60
2017-09-11T12:19:14.596Z,7.22
2017-09-11T12:21:40.882Z,6.45
2017-09-11T12:24:07.097Z,6.30
2017-09-11T12:26:33.310Z,5.87
2017-09-11T12:28:59.588Z,5.30
2017-09-11T12:31:25.800Z,6.10
2017-09-11T12:33:52.047Z,6.07
2017-09-11T12:36:18.326Z,5.90
2017-09-11T12:38:44.547Z,4.35
2017-09-11T12:41:10.771Z,7.55
2017-09-11T12:43:37.036Z,6.82
2017-09-11T12:46:03.249Z,6.15
2017-09-11T12:48:29.470Z,6.55
2017-09-11T12:50:55.752Z,5.85
2017-09-11T12:53:21.970Z,7.32
2017-09-11T12:55:48.185Z,6.43
2017-09-11T12:58:14.475Z,5.05
2017-09-11T13:00:40.698Z,7.10
2017-09-11T13:03:06.931Z,5.45
2017-09-11T13:05:33.203Z,6.40
2017-09-11T13:07:59.662Z,6.28
2017-09-11T13:10:25.896Z,5.85
2017-09-11T13:12:52.184Z,5.65
2017-09-11T13:15:18.412Z,7.47
2017-09-11T13:17:44.655Z,6.18
2017-09-11T13:20:10.925Z,6.20
2017-09-11T13:22:37.155Z,5.75
2017-09-11T13:25:03.356Z,6.73
2017-09-11T13:27:29.715Z,5.10
2017-09-11T13:29:55.930Z,6.20
2017-09-11T13:32:22.141Z,6.57
2017-09-11T13:34:48.413Z,6.93
2017-09-11T13:37:14.631Z,7.00
2017-09-11T13:39:40.849Z,8.30
2017-09-11T13:42:07.158Z,7.30
2017-09-11T13:44:33.380Z,6.67
2017-09-11T13:46:59.592Z,8.20
2017-09-11T13:49:25.850Z,6.93
2017-09-11T13:51:52.080Z,7.80
2017-09-11T13:54:18.320Z,8.67
2017-09-11T13:56:44.605Z,8.50
2017-09-11T13:59:10.813Z,8.60
2017-09-11T14:01:37.036Z,7.37
2017-09-11T14:04:03.323Z,7.33
2017-09-11T14:06:29.559Z,8.30
2017-09-11T14:08:55.754Z,8.53
2017-09-11T14:11:22.045Z,8.77
2017-09-11T14:13:48.260Z,7.40
2017-09-11T14:16:14.492Z,7.90
2017-09-11T14:18:40.779Z,7.57
2017-09-11T14:21:06.985Z,8.20
2017-09-11T14:23:33.204Z,8.87
2017-09-11T14:25:59.483Z,8.37
2017-09-11T14:28:25.698Z,9.60
2017-09-11T14:30:51.917Z,8.23
2017-09-11T14:33:18.184Z,8.57
2017-09-11T14:35:44.389Z,8.20
2017-09-11T14:38:10.600Z,7.83
2017-09-11T14:40:36.895Z,8.43
2017-09-11T14:43:03.110Z,9.60
2017-09-11T14:45:29.316Z,8.20
2017-09-11T14:47:55.588Z,8.63
2017-09-11T14:50:21.811Z,8.50
2017-09-11T14:52:48.037Z,9.07
2017-09-11T14:55:14.324Z,7.50
2017-09-11T14:57:40.542Z,9.03
2017-09-11T15:00:06.816Z,8.37
2017-09-11T15:02:33.112Z,8.53
2017-09-11T15:04:59.320Z,9.20
2017-09-11T15:07:25.711Z,8.07
2017-09-11T15:09:52.011Z,9.23
2017-09-11T15:12:18.228Z,7.83
2017-09-11T15:14:44.447Z,9.30
2017-09-11T15:17:10.704Z,8.97
2017-09-11T15:19:36.917Z,9.20
2017-09-11T15:22:03.142Z,10.40
2017-09-11T15:24:29.418Z,8.93
2017-09-11T15:26:55.643Z,7.97
2017-09-11T15:29:21.880Z,8.97
2017-09-11T15:31:48.163Z,8.03
2017-09-11T15:34:14.376Z,9.40
2017-09-11T15:36:40.599Z,8.37
2017-09-11T15:39:06.885Z,8.53
2017-09-11T15:41:33.126Z,9.30
2017-09-11T15:43:59.351Z,8.70
2017-09-11T15:46:25.634Z,8.70
2017-09-11T15:48:51.862Z,9.33
2017-09-11T15:51:18.082Z,8.93
2017-09-11T15:53:44.370Z,11.20
2017-09-11T15:56:10.607Z,9.10
2017-09-11T15:58:36.830Z,8.07
2017-09-11T16:01:03.137Z,11.00
2017-09-11T16:03:29.376Z,8.37
2017-09-11T16:05:55.603Z,9.07
2017-09-11T16:08:21.888Z,8.90
2017-09-11T16:10:48.108Z,9.00
2017-09-11T16:13:14.328Z,11.43
2017-09-11T16:15:40.722Z,9.57
2017-09-11T16:18:06.935Z,9.40
2017-09-11T16:20:33.153Z,9.47
2017-09-11T16:22:59.436Z,13.57
2017-09-11T16:25:25.654Z,9.77
2017-09-11T16:27:51.871Z,10.03
2017-09-11T16:30:18.161Z,11.57
2017-09-11T16:32:44.392Z,12.03
2017-09-11T16:35:10.606Z,11.90
2017-09-11T16:37:36.888Z,12.37
2017-09-11T16:40:03.244Z,12.10
2017-09-11T16:42:29.490Z,10.60
2017-09-11T16:44:55.772Z,13.20
2017-09-11T16:47:21.982Z,13.50
2017-09-11T16:49:48.208Z,13.87
2017-09-11T16:52:14.497Z,11.27
2017-09-11T16:54:40.728Z,11.30
2017-09-11T16:57:06.960Z,13.47
2017-09-11T16:59:33.271Z,14.30
2017-09-11T17:01:59.490Z,16.20
2017-09-11T17:04:25.716Z,12.67
2017-09-11T17:06:51.991Z,13.50
2017-09-11T17:09:18.204Z,9.33
2017-09-11T17:11:44.432Z,12.57
2017-09-11T17:14:10.724Z,11.47
2017-09-11T17:16:36.943Z,14.73
2017-09-11T17:19:03.170Z,12.00
2017-09-11T17:21:29.430Z,13.07
2017-09-11T17:23:55.645Z,16.00
2017-09-11T17:26:21.865Z,15.30
2017-09-11T17:28:48.148Z,15.00
2017-09-11T17:31:14.370Z,21.07
2017-09-11T17:33:40.611Z,12.70
2017-09-11T17:36:06.901Z,13.20
2017-09-11T17:38:33.129Z,12.73
2017-09-11T17:40:59.356Z,13.70
2017-09-11T17:43:25.652Z,16.00
2017-09-11T17:45:51.879Z,13.27
2017-09-11T17:48:18.102Z,14.70
2017-09-11T17:50:44.454Z,14.33
2017-09-11T17:53:10.688Z,12.77
2017-09-11T17:55:36.909Z,14.77
2017-09-11T17:58:03.192Z,14.80
2017-09-11T18:00:29.442Z,16.10
2017-09-11T18:02:55.657Z,17.37
2017-09-11T18:05:21.923Z,15.53
2017-09-11T18:07:48.131Z,15.17
2017-09-11T18:10:14.346Z,9.00
2017-09-11T18:12:40.615Z,11.90
2017-09-11T18:15:06.839Z,12.50
2017-09-11T18:17:33.146Z,9.50
2017-09-11T18:19:59.355Z,9.87
2017-09-11T18:22:25.556Z,9.73
2017-09-11T18:24:51.834Z,9.20
2017-09-11T18:27:18.076Z,9.13
2017-09-11T18:29:44.265Z,8.20
2017-09-11T18:32:10.533Z,7.27
2017-09-11T18:34:36.950Z,6.37
2017-09-11T18:37:03.137Z,9.27
2017-09-11T18:39:29.389Z,7.77
2017-09-11T18:41:55.602Z,7.70
2017-09-11T18:44:21.807Z,11.40
2017-09-11T18:46:48.063Z,6.53
2017-09-11T18:49:14.308Z,7.17
2017-09-11T18:51:40.501Z,7.50
2017-09-11T18:54:06.977Z,6.63
2017-09-11T18:56:33.168Z,8.23
2017-09-11T18:58:59.369Z,6.93
2017-09-11T19:01:25.641Z,7.23
2017-09-11T19:03:51.833Z,7.80
2017-09-11T19:06:18.029Z,6.87
2017-09-11T19:08:44.275Z,6.23
2017-09-11T19:11:10.478Z,9.87
2017-09-11T19:13:36.803Z,11.53
2017-09-11T19:16:03.055Z,6.53
2017-09-11T19:18:29.255Z,7.00
2017-09-11T19:20:55.461Z,7.80
2017-09-11T19:23:21.723Z,8.57
2017-09-11T19:25:47.944Z,9.30
2017-09-11T19:28:14.164Z,9.17
2017-09-11T19:30:40.434Z,10.63
2017-09-11T19:33:06.644Z,23.50
2017-09-11T19:35:32.843Z,16.43
2017-09-11T19:37:59.120Z,13.50
2017-09-11T19:40:25.345Z,7.17
2017-09-11T19:42:51.573Z,5.70
2017-09-11T19:45:17.848Z,5.60
2017-09-11T19:47:44.078Z,5.60
2017-09-11T19:50:10.289Z,6.77
2017-09-11T19:52:36.553Z,9.30
2017-09-11T19:55:02.757Z,7.77
2017-09-11T19:57:28.978Z,6.67
2017-09-11T19:59:55.260Z,6.20
2017-09-11T20:02:21.470Z,6.23
2017-09-11T20:04:47.673Z,6.30
2017-09-11T20:07:13.943Z,5.53
2017-09-11T20:09:40.151Z,6.90
2017-09-11T20:12:06.362Z,6.70
2017-09-11T20:14:32.604Z,7.97
2017-09-11T20:16:58.818Z,7.17
2017-09-11T20:19:25.025Z,6.70
2017-09-11T20:21:51.300Z,9.03
2017-09-11T20:24:17.506Z,6.30
2017-09-11T20:26:43.727Z,11.33
2017-09-11T20:29:10.002Z,6.60
2017-09-11T20:31:36.232Z,7.40
2017-09-11T20:34:02.563Z,7.80
2017-09-11T20:36:28.849Z,6.67
2017-09-11T20:38:55.055Z,7.67
2017-09-11T20:41:21.387Z,8.03
2017-09-11T20:43:47.684Z,6.17
2017-09-11T20:46:13.909Z,8.13
2017-09-11T20:48:40.134Z,7.37
2017-09-11T20:51:06.384Z,7.03
2017-09-11T20:53:32.600Z,7.00
2017-09-11T20:55:58.827Z,7.27
2017-09-11T20:58:25.112Z,9.40
2017-09-11T21:00:51.322Z,7.73
2017-09-11T21:03:17.660Z,7.73
2017-09-11T21:05:44.140Z,7.97
2017-09-11T21:08:10.355Z,7.83
2017-09-11T21:10:36.569Z,9.30
2017-09-11T21:13:02.836Z,7.63
2017-09-11T21:15:29.066Z,7.37
2017-09-11T21:17:55.289Z,9.07
2017-09-11T21:20:21.563Z,8.70
2017-09-11T21:22:47.816Z,7.93
2017-09-11T21:25:14.038Z,10.13
2017-09-11T21:27:40.322Z,7.60
2017-09-11T21:30:06.530Z,9.87
2017-09-11T21:32:32.728Z,7.73
2017-09-11T21:34:58.996Z,8.47
2017-09-11T21:37:25.211Z,7.30
2017-09-11T21:39:51.427Z,8.47
2017-09-11T21:42:17.699Z,7.30
2017-09-11T21:44:43.922Z,9.17
2017-09-11T21:47:10.143Z,8.30
2017-09-11T21:49:36.418Z,7.70
2017-09-11T21:52:02.646Z,7.90
2017-09-11T21:54:28.859Z,7.80
2017-09-11T21:56:55.108Z,7.90
2017-09-11T21:59:21.326Z,9.03
2017-09-11T22:01:47.547Z,7.27
2017-09-11T22:04:13.843Z,8.50
2017-09-11T22:06:40.056Z,8.37
2017-09-11T22:09:06.286Z,8.17
2017-09-11T22:11:32.530Z,6.53
2017-09-11T22:13:58.728Z,8.70
2017-09-11T22:16:24.954Z,9.00
2017-09-11T22:18:51.236Z,7.57
2017-09-11T22:21:17.461Z,7.90
2017-09-11T22:23:43.671Z,8.00
2017-09-11T22:26:09.967Z,7.33
2017-09-11T22:28:36.181Z,6.97
2017-09-11T22:31:02.390Z,7.73
2017-09-11T22:33:28.669Z,9.53
2017-09-11T22:35:54.874Z,7.93
2017-09-11T22:38:21.091Z,7.70
2017-09-11T22:40:47.352Z,7.30
2017-09-11T22:43:13.553Z,6.93
2017-09-11T22:45:39.762Z,9.07
2017-09-11T22:48:06.024Z,7.80
2017-09-11T22:50:32.222Z,7.63
2017-09-11T22:52:58.442Z,7.47
2017-09-11T22:55:24.777Z,6.43
2017-09-11T22:57:50.985Z,7.93
2017-09-11T23:00:17.274Z,6.97
2017-09-11T23:02:43.559Z,7.67
2017-09-11T23:05:09.765Z,8.30
2017-09-11T23:07:35.973Z,8.27
2017-09-11T23:10:02.238Z,7.33
2017-09-11T23:12:28.449Z,7.27
2017-09-11T23:14:54.661Z,7.20
2017-09-11T23:17:20.922Z,7.80
2017-09-11T23:19:47.142Z,7.87
2017-09-11T23:22:13.372Z,6.20
2017-09-11T23:24:39.630Z,7.03
2017-09-11T23:27:05.850Z,7.70
2017-09-11T23:29:32.065Z,6.97
2017-09-11T23:31:58.452Z,7.60
2017-09-11T23:34:24.667Z,7.80
2017-09-11T23:36:50.878Z,7.03
2017-09-11T23:39:17.146Z,6.93
2017-09-11T23:41:43.354Z,6.07
2017-09-11T23:44:09.571Z,7.57
2017-09-11T23:46:35.821Z,6.73
2017-09-11T23:49:02.025Z,8.13
2017-09-11T23:51:28.237Z,7.30
2017-09-11T23:53:54.505Z,5.83
2017-09-11T23:56:20.715Z,8.23
2017-09-11T23:58:46.936Z,7.80
